sensor_id;sensor_type;location;lat;lon;timestamp;P1;durP1;ratioP1;P2;durP2;ratioP2
76752;SDS011;65687;51.308;16.916;2024-01-15T00:03:19;11.90;;;6.30;;
76752;SDS011;65687;51.308;16.916;2024-01-15T00:08:21;11.70;;;6.90;;
76752;SDS011;65687;51.308;16.916;2024-01-15T00:13:23;9.80;;;5.70;;
76752;SDS011;65687;51.308;16.916;2024-01-15T00:18:24;12.60;;;6.10;;
76752;SDS011;65687;51.308;16.916;2024-01-15T00:23:26;13.30;;;5.50;;
76752;SDS011;65687;51.308;16.916;2024-01-15T00:28:28;13.60;;;6.40;;
76752;SDS011;65687;51.308;16.916;2024-01-15T00:33:29;12.30;;;5.80;;
76752;SDS011;65687;51.308;16.916;2024-01-15T00:38:31;9.80;;;5.30;;
76752;SDS011;65687;51.308;16.916;2024-01-15T00:43:33;11.40;;;5.70;;
76752;SDS011;65687;51.308;16.916;2024-01-15T00:48:34;13.50;;;7.20;;
76752;SDS011;65687;51.308;16.916;2024-01-15T00:53:36;14.90;;;8.00;;
76752;SDS011;65687;51.308;16.916;2024-01-15T00:58:38;13.20;;;7.40;;
76752;SDS011;65687;51.308;16.916;2024-01-15T01:03:39;11.70;;;6.90;;
76752;SDS011;65687;51.308;16.916;2024-01-15T01:08:41;17.00;;;8.20;;
76752;SDS011;65687;51.308;16.916;2024-01-15T01:13:42;16.60;;;8.50;;
76752;SDS011;65687;51.308;16.916;2024-01-15T01:18:44;16.60;;;10.10;;
76752;SDS011;65687;51.308;16.916;2024-01-15T01:23:46;15.70;;;8.50;;
76752;SDS011;65687;51.308;16.916;2024-01-15T01:28:47;15.90;;;8.30;;
76752;SDS011;65687;51.308;16.916;2024-01-15T01:33:49;17.20;;;8.40;;
76752;SDS011;65687;51.308;16.916;2024-01-15T01:38:51;15.60;;;8.80;;
76752;SDS011;65687;51.308;16.916;2024-01-15T01:43:52;16.30;;;8.50;;
76752;SDS011;65687;51.308;16.916;2024-01-15T01:48:54;15.30;;;7.90;;
76752;SDS011;65687;51.308;16.916;2024-01-15T01:53:57;15.10;;;7.30;;
76752;SDS011;65687;51.308;16.916;2024-01-15T01:58:59;10.20;;;5.70;;
76752;SDS011;65687;51.308;16.916;2024-01-15T02:04:03;12.20;;;6.10;;
76752;SDS011;65687;51.308;16.916;2024-01-15T02:09:05;10.50;;;5.30;;
76752;SDS011;65687;51.308;16.916;2024-01-15T02:14:09;10.80;;;5.20;;
76752;SDS011;65687;51.308;16.916;2024-01-15T02:19:15;12.90;;;6.10;;
76752;SDS011;65687;51.308;16.916;2024-01-15T02:24:18;8.40;;;4.70;;
76752;SDS011;65687;51.308;16.916;2024-01-15T02:29:20;9.50;;;5.20;;
76752;SDS011;65687;51.308;16.916;2024-01-15T02:34:21;9.50;;;5.50;;
76752;SDS011;65687;51.308;16.916;2024-01-15T02:39:23;10.20;;;5.00;;
76752;SDS011;65687;51.308;16.916;2024-01-15T02:44:25;10.90;;;4.60;;
76752;SDS011;65687;51.308;16.916;2024-01-15T02:49:26;9.10;;;5.20;;
76752;SDS011;65687;51.308;16.916;2024-01-15T02:54:28;7.50;;;4.40;;
76752;SDS011;65687;51.308;16.916;2024-01-15T02:59:29;9.00;;;4.70;;
76752;SDS011;65687;51.308;16.916;2024-01-15T03:04:31;7.50;;;4.00;;
76752;SDS011;65687;51.308;16.916;2024-01-15T03:09:33;7.80;;;4.00;;
76752;SDS011;65687;51.308;16.916;2024-01-15T03:14:35;7.20;;;4.50;;
76752;SDS011;65687;51.308;16.916;2024-01-15T03:19:37;7.60;;;3.80;;
76752;SDS011;65687;51.308;16.916;2024-01-15T03:24:38;6.10;;;3.40;;
76752;SDS011;65687;51.308;16.916;2024-01-15T03:29:40;7.00;;;4.50;;
76752;SDS011;65687;51.308;16.916;2024-01-15T03:34:42;8.80;;;3.90;;
76752;SDS011;65687;51.308;16.916;2024-01-15T03:39:44;8.00;;;3.50;;
76752;SDS011;65687;51.308;16.916;2024-01-15T03:44:45;7.10;;;3.50;;
76752;SDS011;65687;51.308;16.916;2024-01-15T03:49:47;7.30;;;3.60;;
76752;SDS011;65687;51.308;16.916;2024-01-15T03:54:49;10.00;;;4.40;;
76752;SDS011;65687;51.308;16.916;2024-01-15T03:59:50;6.50;;;4.00;;
76752;SDS011;65687;51.308;16.916;2024-01-15T04:04:52;7.30;;;3.40;;
76752;SDS011;65687;51.308;16.916;2024-01-15T04:09:53;7.70;;;4.20;;
76752;SDS011;65687;51.308;16.916;2024-01-15T04:14:55;10.90;;;3.90;;
76752;SDS011;65687;51.308;16.916;2024-01-15T04:19:57;7.70;;;4.10;;
76752;SDS011;65687;51.308;16.916;2024-01-15T04:24:58;6.70;;;3.70;;
76752;SDS011;65687;51.308;16.916;2024-01-15T04:30:00;6.60;;;4.10;;
76752;SDS011;65687;51.308;16.916;2024-01-15T04:35:02;7.20;;;4.40;;
76752;SDS011;65687;51.308;16.916;2024-01-15T04:40:04;8.70;;;4.30;;
76752;SDS011;65687;51.308;16.916;2024-01-15T04:45:06;6.00;;;3.60;;
76752;SDS011;65687;51.308;16.916;2024-01-15T04:50:08;6.30;;;3.40;;
76752;SDS011;65687;51.308;16.916;2024-01-15T04:55:09;8.40;;;4.80;;
76752;SDS011;65687;51.308;16.916;2024-01-15T05:00:11;10.10;;;4.40;;
76752;SDS011;65687;51.308;16.916;2024-01-15T05:05:14;10.20;;;4.40;;
76752;SDS011;65687;51.308;16.916;2024-01-15T05:10:16;8.20;;;4.70;;
76752;SDS011;65687;51.308;16.916;2024-01-15T05:15:17;7.50;;;3.60;;
76752;SDS011;65687;51.308;16.916;2024-01-15T05:20:19;9.00;;;4.00;;
76752;SDS011;65687;51.308;16.916;2024-01-15T05:25:21;9.70;;;4.60;;
76752;SDS011;65687;51.308;16.916;2024-01-15T05:30:22;6.80;;;4.00;;
76752;SDS011;65687;51.308;16.916;2024-01-15T05:35:24;7.50;;;4.10;;
76752;SDS011;65687;51.308;16.916;2024-01-15T05:40:25;5.60;;;3.70;;
76752;SDS011;65687;51.308;16.916;2024-01-15T05:45:27;6.40;;;4.10;;
76752;SDS011;65687;51.308;16.916;2024-01-15T05:50:30;5.70;;;3.60;;
76752;SDS011;65687;51.308;16.916;2024-01-15T05:55:32;7.60;;;3.50;;
76752;SDS011;65687;51.308;16.916;2024-01-15T06:00:33;9.20;;;4.60;;
76752;SDS011;65687;51.308;16.916;2024-01-15T06:10:38;7.60;;;4.30;;
76752;SDS011;65687;51.308;16.916;2024-01-15T06:15:39;6.50;;;3.60;;
76752;SDS011;65687;51.308;16.916;2024-01-15T06:20:42;5.30;;;3.00;;
76752;SDS011;65687;51.308;16.916;2024-01-15T06:25:44;6.70;;;3.50;;
76752;SDS011;65687;51.308;16.916;2024-01-15T06:30:46;8.00;;;3.90;;
76752;SDS011;65687;51.308;16.916;2024-01-15T06:35:47;12.90;;;6.40;;
76752;SDS011;65687;51.308;16.916;2024-01-15T06:40:50;10.00;;;4.50;;
76752;SDS011;65687;51.308;16.916;2024-01-15T06:45:52;8.70;;;5.20;;
76752;SDS011;65687;51.308;16.916;2024-01-15T06:50:54;8.60;;;4.60;;
76752;SDS011;65687;51.308;16.916;2024-01-15T06:55:56;9.30;;;4.50;;
76752;SDS011;65687;51.308;16.916;2024-01-15T07:00:58;7.10;;;4.00;;
76752;SDS011;65687;51.308;16.916;2024-01-15T07:05:59;12.00;;;4.70;;
76752;SDS011;65687;51.308;16.916;2024-01-15T07:11:05;10.90;;;4.60;;
76752;SDS011;65687;51.308;16.916;2024-01-15T07:16:07;10.40;;;5.00;;
76752;SDS011;65687;51.308;16.916;2024-01-15T07:21:09;7.50;;;4.10;;
76752;SDS011;65687;51.308;16.916;2024-01-15T07:26:10;12.80;;;5.20;;
76752;SDS011;65687;51.308;16.916;2024-01-15T07:31:12;12.10;;;5.40;;
76752;SDS011;65687;51.308;16.916;2024-01-15T07:36:14;13.10;;;5.30;;
76752;SDS011;65687;51.308;16.916;2024-01-15T07:41:16;9.90;;;4.40;;
76752;SDS011;65687;51.308;16.916;2024-01-15T07:46:17;10.10;;;5.40;;
76752;SDS011;65687;51.308;16.916;2024-01-15T07:51:19;9.50;;;5.10;;
76752;SDS011;65687;51.308;16.916;2024-01-15T07:56:21;10.50;;;4.90;;
76752;SDS011;65687;51.308;16.916;2024-01-15T08:01:23;11.80;;;4.60;;
76752;SDS011;65687;51.308;16.916;2024-01-15T08:06:24;9.20;;;4.60;;
76752;SDS011;65687;51.308;16.916;2024-01-15T08:11:26;8.40;;;4.40;;
76752;SDS011;65687;51.308;16.916;2024-01-15T08:16:29;8.60;;;4.00;;
76752;SDS011;65687;51.308;16.916;2024-01-15T08:21:31;7.50;;;4.10;;
76752;SDS011;65687;51.308;16.916;2024-01-15T08:26:33;10.50;;;4.10;;
76752;SDS011;65687;51.308;16.916;2024-01-15T08:31:35;11.60;;;4.90;;
76752;SDS011;65687;51.308;16.916;2024-01-15T08:36:37;22.60;;;6.70;;
76752;SDS011;65687;51.308;16.916;2024-01-15T08:41:39;12.40;;;4.80;;
76752;SDS011;65687;51.308;16.916;2024-01-15T08:46:41;11.80;;;4.70;;
76752;SDS011;65687;51.308;16.916;2024-01-15T08:51:42;9.40;;;4.30;;
76752;SDS011;65687;51.308;16.916;2024-01-15T08:56:44;9.00;;;4.70;;
76752;SDS011;65687;51.308;16.916;2024-01-15T09:01:46;9.10;;;4.50;;
76752;SDS011;65687;51.308;16.916;2024-01-15T09:06:48;10.10;;;4.50;;
76752;SDS011;65687;51.308;16.916;2024-01-15T09:11:50;7.40;;;3.70;;
76752;SDS011;65687;51.308;16.916;2024-01-15T09:21:54;10.00;;;4.20;;
76752;SDS011;65687;51.308;16.916;2024-01-15T09:26:56;7.50;;;3.60;;
76752;SDS011;65687;51.308;16.916;2024-01-15T09:31:58;8.90;;;4.00;;
76752;SDS011;65687;51.308;16.916;2024-01-15T09:37:00;8.90;;;3.70;;
76752;SDS011;65687;51.308;16.916;2024-01-15T09:42:02;8.50;;;4.20;;
76752;SDS011;65687;51.308;16.916;2024-01-15T09:47:05;8.70;;;4.00;;
76752;SDS011;65687;51.308;16.916;2024-01-15T09:52:07;10.10;;;4.10;;
76752;SDS011;65687;51.308;16.916;2024-01-15T09:57:09;5.70;;;3.10;;
76752;SDS011;65687;51.308;16.916;2024-01-15T10:02:12;7.90;;;3.30;;
76752;SDS011;65687;51.308;16.916;2024-01-15T10:07:20;8.00;;;3.80;;
76752;SDS011;65687;51.308;16.916;2024-01-15T10:12:23;6.90;;;3.30;;
76752;SDS011;65687;51.308;16.916;2024-01-15T10:17:28;6.10;;;2.90;;
76752;SDS011;65687;51.308;16.916;2024-01-15T10:22:30;9.80;;;4.30;;
76752;SDS011;65687;51.308;16.916;2024-01-15T10:27:31;5.90;;;3.00;;
76752;SDS011;65687;51.308;16.916;2024-01-15T10:32:33;6.40;;;3.40;;
76752;SDS011;65687;51.308;16.916;2024-01-15T10:37:35;6.60;;;3.00;;
76752;SDS011;65687;51.308;16.916;2024-01-15T10:42:37;7.10;;;4.40;;
76752;SDS011;65687;51.308;16.916;2024-01-15T10:47:39;7.50;;;4.20;;
76752;SDS011;65687;51.308;16.916;2024-01-15T10:52:41;7.80;;;4.00;;
76752;SDS011;65687;51.308;16.916;2024-01-15T10:57:44;8.00;;;3.30;;
76752;SDS011;65687;51.308;16.916;2024-01-15T11:02:46;5.60;;;3.30;;
76752;SDS011;65687;51.308;16.916;2024-01-15T11:07:49;6.90;;;3.70;;
76752;SDS011;65687;51.308;16.916;2024-01-15T11:12:51;7.70;;;3.70;;
76752;SDS011;65687;51.308;16.916;2024-01-15T11:18:00;9.10;;;3.60;;
76752;SDS011;65687;51.308;16.916;2024-01-15T11:23:04;8.10;;;4.00;;
76752;SDS011;65687;51.308;16.916;2024-01-15T11:28:06;8.90;;;4.10;;
76752;SDS011;65687;51.308;16.916;2024-01-15T11:33:08;10.60;;;3.70;;
76752;SDS011;65687;51.308;16.916;2024-01-15T11:38:35;6.00;;;3.50;;
76752;SDS011;65687;51.308;16.916;2024-01-15T11:43:37;8.00;;;3.80;;
76752;SDS011;65687;51.308;16.916;2024-01-15T11:48:42;5.10;;;3.50;;
76752;SDS011;65687;51.308;16.916;2024-01-15T11:53:48;8.70;;;3.80;;
76752;SDS011;65687;51.308;16.916;2024-01-15T11:58:55;6.60;;;3.40;;
76752;SDS011;65687;51.308;16.916;2024-01-15T12:03:57;5.80;;;3.20;;
76752;SDS011;65687;51.308;16.916;2024-01-15T12:09:06;10.30;;;4.70;;
76752;SDS011;65687;51.308;16.916;2024-01-15T12:14:08;14.00;;;5.20;;
76752;SDS011;65687;51.308;16.916;2024-01-15T12:19:10;12.70;;;5.40;;
76752;SDS011;65687;51.308;16.916;2024-01-15T12:24:12;11.20;;;4.40;;
76752;SDS011;65687;51.308;16.916;2024-01-15T12:29:14;10.80;;;4.40;;
76752;SDS011;65687;51.308;16.916;2024-01-15T12:34:19;19.90;;;7.40;;
76752;SDS011;65687;51.308;16.916;2024-01-15T12:39:21;14.00;;;6.00;;
76752;SDS011;65687;51.308;16.916;2024-01-15T12:44:22;9.60;;;3.70;;
76752;SDS011;65687;51.308;16.916;2024-01-15T12:49:25;8.50;;;4.50;;
76752;SDS011;65687;51.308;16.916;2024-01-15T12:54:27;8.50;;;3.50;;
76752;SDS011;65687;51.308;16.916;2024-01-15T12:59:29;8.40;;;3.90;;
76752;SDS011;65687;51.308;16.916;2024-01-15T13:04:31;5.10;;;3.20;;
76752;SDS011;65687;51.308;16.916;2024-01-15T13:09:33;6.80;;;3.70;;
76752;SDS011;65687;51.308;16.916;2024-01-15T13:14:36;5.70;;;3.20;;
76752;SDS011;65687;51.308;16.916;2024-01-15T13:19:37;9.00;;;4.70;;
76752;SDS011;65687;51.308;16.916;2024-01-15T13:24:39;7.80;;;3.90;;
76752;SDS011;65687;51.308;16.916;2024-01-15T13:29:41;11.50;;;5.30;;
76752;SDS011;65687;51.308;16.916;2024-01-15T13:34:43;11.70;;;4.90;;
76752;SDS011;65687;51.308;16.916;2024-01-15T13:39:44;6.80;;;3.70;;
76752;SDS011;65687;51.308;16.916;2024-01-15T13:44:46;6.90;;;4.00;;
76752;SDS011;65687;51.308;16.916;2024-01-15T13:49:48;7.90;;;4.10;;
76752;SDS011;65687;51.308;16.916;2024-01-15T13:54:50;24.50;;;9.80;;
76752;SDS011;65687;51.308;16.916;2024-01-15T13:59:52;42.10;;;14.50;;
76752;SDS011;65687;51.308;16.916;2024-01-15T14:04:54;29.00;;;14.10;;
76752;SDS011;65687;51.308;16.916;2024-01-15T14:09:56;22.40;;;9.30;;
76752;SDS011;65687;51.308;16.916;2024-01-15T14:20:01;10.80;;;4.50;;
76752;SDS011;65687;51.308;16.916;2024-01-15T14:25:03;10.00;;;4.50;;
76752;SDS011;65687;51.308;16.916;2024-01-15T14:30:06;8.30;;;3.70;;
76752;SDS011;65687;51.308;16.916;2024-01-15T14:35:10;7.20;;;3.60;;
76752;SDS011;65687;51.308;16.916;2024-01-15T14:40:14;9.30;;;4.40;;
76752;SDS011;65687;51.308;16.916;2024-01-15T14:45:17;14.90;;;6.70;;
76752;SDS011;65687;51.308;16.916;2024-01-15T14:50:18;11.00;;;5.70;;
76752;SDS011;65687;51.308;16.916;2024-01-15T14:55:20;7.30;;;3.40;;
76752;SDS011;65687;51.308;16.916;2024-01-15T15:00:24;5.00;;;2.80;;
76752;SDS011;65687;51.308;16.916;2024-01-15T15:05:26;8.60;;;3.90;;
76752;SDS011;65687;51.308;16.916;2024-01-15T15:10:28;5.80;;;3.00;;
76752;SDS011;65687;51.308;16.916;2024-01-15T15:15:29;8.90;;;3.50;;
76752;SDS011;65687;51.308;16.916;2024-01-15T15:20:31;5.70;;;2.90;;
76752;SDS011;65687;51.308;16.916;2024-01-15T15:25:36;7.90;;;3.40;;
76752;SDS011;65687;51.308;16.916;2024-01-15T15:30:38;7.60;;;4.00;;
76752;SDS011;65687;51.308;16.916;2024-01-15T15:35:40;6.50;;;3.30;;
76752;SDS011;65687;51.308;16.916;2024-01-15T15:40:41;7.50;;;3.20;;
76752;SDS011;65687;51.308;16.916;2024-01-15T15:45:43;5.00;;;2.60;;
76752;SDS011;65687;51.308;16.916;2024-01-15T15:50:45;7.00;;;3.20;;
76752;SDS011;65687;51.308;16.916;2024-01-15T15:55:47;7.30;;;2.90;;
76752;SDS011;65687;51.308;16.916;2024-01-15T16:00:48;7.90;;;3.30;;
76752;SDS011;65687;51.308;16.916;2024-01-15T16:05:50;6.10;;;3.20;;
76752;SDS011;65687;51.308;16.916;2024-01-15T16:10:52;6.90;;;3.30;;
76752;SDS011;65687;51.308;16.916;2024-01-15T16:15:54;4.30;;;2.90;;
76752;SDS011;65687;51.308;16.916;2024-01-15T16:20:55;9.20;;;4.60;;
76752;SDS011;65687;51.308;16.916;2024-01-15T16:25:57;6.10;;;4.00;;
76752;SDS011;65687;51.308;16.916;2024-01-15T16:30:59;7.20;;;3.90;;
76752;SDS011;65687;51.308;16.916;2024-01-15T16:36:00;6.70;;;3.00;;
76752;SDS011;65687;51.308;16.916;2024-01-15T16:41:02;8.00;;;4.00;;
76752;SDS011;65687;51.308;16.916;2024-01-15T16:46:04;8.30;;;4.20;;
76752;SDS011;65687;51.308;16.916;2024-01-15T16:51:05;11.00;;;4.70;;
76752;SDS011;65687;51.308;16.916;2024-01-15T16:56:07;9.70;;;5.10;;
76752;SDS011;65687;51.308;16.916;2024-01-15T17:01:09;12.00;;;4.70;;
76752;SDS011;65687;51.308;16.916;2024-01-15T17:06:11;7.60;;;4.40;;
76752;SDS011;65687;51.308;16.916;2024-01-15T17:11:13;11.40;;;4.30;;
76752;SDS011;65687;51.308;16.916;2024-01-15T17:16:15;7.20;;;3.30;;
76752;SDS011;65687;51.308;16.916;2024-01-15T17:21:16;8.90;;;4.00;;
76752;SDS011;65687;51.308;16.916;2024-01-15T17:26:18;8.20;;;3.60;;
76752;SDS011;65687;51.308;16.916;2024-01-15T17:31:20;11.80;;;5.20;;
76752;SDS011;65687;51.308;16.916;2024-01-15T17:36:22;11.20;;;5.40;;
76752;SDS011;65687;51.308;16.916;2024-01-15T17:41:24;17.60;;;5.70;;
76752;SDS011;65687;51.308;16.916;2024-01-15T17:46:25;14.20;;;4.80;;
76752;SDS011;65687;51.308;16.916;2024-01-15T17:51:27;8.40;;;4.50;;
76752;SDS011;65687;51.308;16.916;2024-01-15T17:56:29;9.20;;;3.10;;
76752;SDS011;65687;51.308;16.916;2024-01-15T18:01:30;10.30;;;4.10;;
76752;SDS011;65687;51.308;16.916;2024-01-15T18:06:33;14.20;;;6.80;;
76752;SDS011;65687;51.308;16.916;2024-01-15T18:11:34;13.60;;;7.20;;
76752;SDS011;65687;51.308;16.916;2024-01-15T18:16:36;10.50;;;4.90;;
76752;SDS011;65687;51.308;16.916;2024-01-15T18:21:38;14.10;;;5.50;;
76752;SDS011;65687;51.308;16.916;2024-01-15T18:26:40;6.90;;;3.50;;
76752;SDS011;65687;51.308;16.916;2024-01-15T18:31:43;10.70;;;4.90;;
76752;SDS011;65687;51.308;16.916;2024-01-15T18:36:44;6.30;;;3.80;;
76752;SDS011;65687;51.308;16.916;2024-01-15T18:41:47;9.80;;;4.50;;
76752;SDS011;65687;51.308;16.916;2024-01-15T18:46:49;7.50;;;4.00;;
76752;SDS011;65687;51.308;16.916;2024-01-15T18:51:51;10.20;;;5.10;;
76752;SDS011;65687;51.308;16.916;2024-01-15T18:56:53;7.20;;;3.90;;
76752;SDS011;65687;51.308;16.916;2024-01-15T19:01:54;7.90;;;4.50;;
76752;SDS011;65687;51.308;16.916;2024-01-15T19:06:56;10.40;;;4.80;;
76752;SDS011;65687;51.308;16.916;2024-01-15T19:11:58;9.40;;;5.80;;
76752;SDS011;65687;51.308;16.916;2024-01-15T19:17:00;9.70;;;4.10;;
76752;SDS011;65687;51.308;16.916;2024-01-15T19:22:03;8.80;;;4.60;;
76752;SDS011;65687;51.308;16.916;2024-01-15T19:27:05;7.50;;;4.10;;
76752;SDS011;65687;51.308;16.916;2024-01-15T19:32:07;9.40;;;4.10;;
76752;SDS011;65687;51.308;16.916;2024-01-15T19:37:10;8.80;;;4.80;;
76752;SDS011;65687;51.308;16.916;2024-01-15T19:42:12;9.40;;;4.10;;
76752;SDS011;65687;51.308;16.916;2024-01-15T19:47:14;9.40;;;5.00;;
76752;SDS011;65687;51.308;16.916;2024-01-15T19:52:16;9.50;;;4.30;;
76752;SDS011;65687;51.308;16.916;2024-01-15T19:57:17;8.80;;;4.30;;
76752;SDS011;65687;51.308;16.916;2024-01-15T20:02:20;10.60;;;4.30;;
76752;SDS011;65687;51.308;16.916;2024-01-15T20:07:22;8.50;;;4.10;;
76752;SDS011;65687;51.308;16.916;2024-01-15T20:12:24;8.40;;;4.20;;
76752;SDS011;65687;51.308;16.916;2024-01-15T20:17:26;7.50;;;4.20;;
76752;SDS011;65687;51.308;16.916;2024-01-15T20:22:28;9.00;;;4.60;;
76752;SDS011;65687;51.308;16.916;2024-01-15T20:27:30;9.70;;;5.30;;
76752;SDS011;65687;51.308;16.916;2024-01-15T20:32:32;8.00;;;5.20;;
76752;SDS011;65687;51.308;16.916;2024-01-15T20:37:34;6.40;;;3.50;;
76752;SDS011;65687;51.308;16.916;2024-01-15T20:42:37;6.80;;;3.10;;
76752;SDS011;65687;51.308;16.916;2024-01-15T20:47:38;7.00;;;3.90;;
76752;SDS011;65687;51.308;16.916;2024-01-15T20:52:40;6.40;;;3.80;;
76752;SDS011;65687;51.308;16.916;2024-01-15T20:57:42;7.60;;;3.90;;
76752;SDS011;65687;51.308;16.916;2024-01-15T21:02:46;6.40;;;3.70;;
76752;SDS011;65687;51.308;16.916;2024-01-15T21:07:49;7.70;;;4.20;;
76752;SDS011;65687;51.308;16.916;2024-01-15T21:12:52;9.10;;;3.60;;
76752;SDS011;65687;51.308;16.916;2024-01-15T21:17:53;6.10;;;3.50;;
76752;SDS011;65687;51.308;16.916;2024-01-15T21:22:55;5.80;;;2.80;;
76752;SDS011;65687;51.308;16.916;2024-01-15T21:27:57;9.50;;;4.00;;
76752;SDS011;65687;51.308;16.916;2024-01-15T21:32:59;10.20;;;5.20;;
76752;SDS011;65687;51.308;16.916;2024-01-15T21:38:00;7.30;;;4.00;;
76752;SDS011;65687;51.308;16.916;2024-01-15T21:43:02;6.50;;;3.50;;
76752;SDS011;65687;51.308;16.916;2024-01-15T21:48:04;6.90;;;3.90;;
76752;SDS011;65687;51.308;16.916;2024-01-15T21:53:06;7.70;;;3.90;;
76752;SDS011;65687;51.308;16.916;2024-01-15T21:58:07;7.70;;;4.10;;
76752;SDS011;65687;51.308;16.916;2024-01-15T22:03:10;6.50;;;3.80;;
76752;SDS011;65687;51.308;16.916;2024-01-15T22:08:11;9.20;;;4.60;;
76752;SDS011;65687;51.308;16.916;2024-01-15T22:13:13;10.50;;;4.50;;
76752;SDS011;65687;51.308;16.916;2024-01-15T22:18:15;10.50;;;4.40;;
76752;SDS011;65687;51.308;16.916;2024-01-15T22:23:16;9.00;;;4.40;;
76752;SDS011;65687;51.308;16.916;2024-01-15T22:28:18;7.40;;;4.20;;
76752;SDS011;65687;51.308;16.916;2024-01-15T22:33:20;6.70;;;3.40;;
76752;SDS011;65687;51.308;16.916;2024-01-15T22:38:21;8.40;;;4.60;;
76752;SDS011;65687;51.308;16.916;2024-01-15T22:43:23;10.00;;;4.40;;
76752;SDS011;65687;51.308;16.916;2024-01-15T22:48:25;9.30;;;5.10;;
76752;SDS011;65687;51.308;16.916;2024-01-15T22:53:26;9.60;;;4.70;;
76752;SDS011;65687;51.308;16.916;2024-01-15T22:58:28;8.60;;;4.40;;
76752;SDS011;65687;51.308;16.916;2024-01-15T23:03:30;10.30;;;5.10;;
76752;SDS011;65687;51.308;16.916;2024-01-15T23:08:32;12.10;;;6.70;;
76752;SDS011;65687;51.308;16.916;2024-01-15T23:13:33;6.10;;;3.20;;
76752;SDS011;65687;51.308;16.916;2024-01-15T23:18:35;4.40;;;2.20;;
76752;SDS011;65687;51.308;16.916;2024-01-15T23:23:37;3.70;;;1.80;;
76752;SDS011;65687;51.308;16.916;2024-01-15T23:28:38;4.20;;;1.70;;
76752;SDS011;65687;51.308;16.916;2024-01-15T23:33:40;3.50;;;1.70;;
76752;SDS011;65687;51.308;16.916;2024-01-15T23:38:42;4.40;;;2.20;;
76752;SDS011;65687;51.308;16.916;2024-01-15T23:43:44;6.40;;;2.40;;
76752;SDS011;65687;51.308;16.916;2024-01-15T23:48:46;3.20;;;2.20;;
76752;SDS011;65687;51.308;16.916;2024-01-15T23:53:48;3.70;;;2.30;;
76752;SDS011;65687;51.308;16.916;2024-01-15T23:58:50;3.50;;;2.00;;
